createdAt,value
2017-12-19T00:00:30.760Z,99.30
2017-12-19T00:02:58.250Z,99.20
2017-12-19T00:05:25.775Z,99.30
2017-12-19T00:07:53.286Z,99.00
2017-12-19T00:10:35.662Z,98.90
2017-12-19T00:13:03.178Z,99.00
2017-12-19T00:15:30.677Z,98.90
2017-12-19T00:17:58.167Z,99.10
2017-12-19T00:20:26.458Z,99.10
2017-12-19T00:22:54.727Z,99.00
2017-12-19T00:25:24.921Z,99.00
2017-12-19T00:27:52.435Z,98.70
2017-12-19T00:30:20.069Z,98.90
2017-12-19T00:32:48.342Z,98.80
2017-12-19T00:35:16.599Z,99.10
2017-12-19T00:37:45.615Z,98.90
2017-12-19T00:40:13.874Z,99.00
2017-12-19T00:42:41.371Z,99.00
2017-12-19T00:45:08.875Z,99.10
2017-12-19T00:47:36.366Z,99.00
2017-12-19T00:50:04.663Z,99.10
2017-12-19T00:52:32.166Z,99.00
2017-12-19T00:54:59.662Z,98.90
2017-12-19T00:57:27.930Z,99.00
2017-12-19T00:59:56.207Z,99.10
2017-12-19T01:02:24.486Z,99.50
2017-12-19T01:04:52.753Z,99.60
2017-12-19T01:07:20.246Z,99.50
2017-12-19T01:09:47.752Z,99.50
2017-12-19T01:12:15.241Z,99.80
2017-12-19T01:14:43.545Z,99.90
2017-12-19T01:17:11.041Z,99.90
2017-12-19T01:19:38.541Z,99.90
2017-12-19T01:22:06.816Z,99.90
2017-12-19T01:24:35.070Z,99.90
2017-12-19T01:27:02.603Z,99.90
2017-12-19T01:29:30.106Z,99.70
2017-12-19T01:31:58.362Z,99.80
2017-12-19T01:34:25.872Z,99.80
2017-12-19T01:36:53.369Z,99.70
2017-12-19T01:39:20.890Z,99.70
2017-12-19T01:41:48.385Z,99.70
2017-12-19T01:44:15.882Z,99.60
2017-12-19T01:46:44.166Z,99.80
2017-12-19T01:49:12.434Z,99.60
2017-12-19T01:51:40.710Z,99.80
2017-12-19T01:54:08.962Z,99.90
2017-12-19T01:56:36.453Z,99.90
2017-12-19T01:59:04.734Z,99.80
2017-12-19T02:01:32.229Z,99.80
2017-12-19T02:03:59.746Z,99.70
2017-12-19T02:06:28.030Z,99.90
2017-12-19T02:08:56.282Z,99.90
2017-12-19T02:11:23.794Z,99.90
2017-12-19T02:13:51.286Z,99.90
2017-12-19T02:16:18.791Z,99.90
2017-12-19T02:18:46.292Z,99.80
2017-12-19T02:21:13.794Z,99.90
2017-12-19T02:23:42.066Z,99.80
2017-12-19T02:26:10.318Z,99.90
2017-12-19T02:28:37.829Z,99.90
2017-12-19T02:31:05.322Z,99.70
2017-12-19T02:33:32.814Z,99.80
2017-12-19T02:36:01.086Z,99.90
2017-12-19T02:38:29.345Z,99.90
2017-12-19T02:40:56.858Z,99.90
2017-12-19T02:43:24.350Z,99.90
2017-12-19T02:45:51.854Z,99.90
2017-12-19T02:48:20.109Z,99.90
2017-12-19T02:50:47.686Z,99.90
2017-12-19T02:53:15.955Z,99.90
2017-12-19T02:55:44.211Z,99.90
2017-12-19T02:58:11.714Z,99.90
2017-12-19T03:00:39.257Z,99.90
2017-12-19T03:03:07.525Z,99.60
2017-12-19T03:05:35.836Z,99.70
2017-12-19T03:08:03.338Z,99.70
2017-12-19T03:10:30.822Z,99.60
2017-12-19T03:12:59.109Z,99.50
2017-12-19T03:15:27.366Z,99.40
2017-12-19T03:17:55.651Z,99.40
2017-12-19T03:20:23.931Z,99.60
2017-12-19T03:22:52.189Z,99.40
2017-12-19T03:25:19.788Z,99.40
2017-12-19T03:27:47.288Z,99.50
2017-12-19T03:30:14.811Z,99.40
2017-12-19T03:32:42.310Z,99.60
2017-12-19T03:35:09.799Z,99.50
2017-12-19T03:37:38.086Z,99.50
2017-12-19T03:40:06.345Z,99.50
2017-12-19T03:42:34.674Z,99.70
2017-12-19T03:45:02.166Z,99.60
2017-12-19T03:47:29.686Z,99.30
2017-12-19T03:49:57.222Z,99.40
2017-12-19T03:52:30.218Z,99.40
2017-12-19T03:54:57.714Z,99.40
2017-12-19T03:57:25.210Z,99.50
2017-12-19T03:59:53.498Z,99.40
2017-12-19T04:02:21.757Z,99.40
2017-12-19T04:04:50.036Z,99.50
2017-12-19T04:07:18.298Z,99.30
2017-12-19T04:09:45.815Z,99.30
2017-12-19T04:12:13.317Z,99.50
2017-12-19T04:14:40.815Z,99.10
2017-12-19T04:17:08.318Z,99.20
2017-12-19T04:19:36.584Z,99.30
2017-12-19T04:22:04.088Z,99.30
2017-12-19T04:24:32.346Z,99.40
2017-12-19T04:26:59.860Z,99.40
2017-12-19T04:29:27.383Z,99.40
2017-12-19T04:31:55.697Z,99.50
2017-12-19T04:34:23.205Z,99.50
2017-12-19T04:36:50.693Z,99.00
2017-12-19T04:39:18.962Z,99.20
2017-12-19T04:41:47.224Z,99.30
2017-12-19T04:44:14.801Z,99.30
2017-12-19T04:46:43.067Z,99.20
2017-12-19T04:49:11.330Z,99.30
2017-12-19T04:51:38.836Z,99.30
2017-12-19T04:54:06.378Z,99.50
2017-12-19T04:56:33.898Z,99.50
2017-12-19T07:51:22.080Z,99.90
2017-12-19T07:53:49.597Z,99.90
2017-12-19T07:56:17.094Z,99.90
2017-12-19T07:58:44.610Z,99.90
2017-12-19T08:01:12.887Z,99.90
2017-12-19T08:03:40.389Z,99.90
2017-12-19T08:06:07.894Z,99.90
2017-12-19T08:08:35.394Z,99.90
2017-12-19T08:11:03.671Z,99.90
2017-12-19T08:13:31.174Z,99.90
2017-12-19T08:15:58.691Z,99.90
2017-12-19T08:18:26.187Z,99.90
2017-12-19T08:20:53.683Z,99.90
2017-12-19T08:23:21.963Z,99.90
2017-12-19T08:25:50.226Z,99.90
2017-12-19T08:28:17.730Z,99.90
2017-12-19T08:30:45.226Z,99.90
2017-12-19T08:33:12.751Z,99.90
2017-12-19T08:35:40.255Z,99.90
2017-12-19T08:38:07.752Z,99.90
2017-12-19T08:40:35.306Z,99.90
2017-12-19T08:43:03.563Z,99.90
2017-12-19T08:45:31.074Z,99.90
2017-12-19T08:47:58.579Z,99.90
2017-12-19T08:50:26.098Z,99.90
2017-12-19T08:52:53.597Z,99.90
2017-12-19T08:55:21.082Z,99.90
2017-12-19T08:57:48.590Z,99.90
2017-12-19T09:00:16.084Z,99.90
2017-12-19T09:02:44.360Z,99.90
2017-12-19T09:05:12.618Z,99.90
2017-12-19T09:07:40.131Z,99.90
2017-12-19T09:10:09.590Z,99.90
2017-12-19T09:12:37.850Z,99.90
2017-12-19T09:15:05.372Z,99.90
2017-12-19T09:17:32.882Z,99.90
2017-12-19T09:20:00.398Z,99.90
2017-12-19T09:22:27.885Z,99.90
2017-12-19T09:24:55.401Z,99.90
2017-12-19T09:27:22.898Z,99.90
2017-12-19T09:29:50.395Z,99.90
2017-12-19T09:32:18.666Z,99.90
2017-12-19T09:34:46.952Z,99.90
2017-12-19T09:37:15.222Z,99.90
2017-12-19T09:39:43.554Z,99.90
2017-12-19T09:42:11.043Z,99.90
2017-12-19T09:44:39.319Z,99.90
2017-12-19T09:47:06.809Z,99.90
2017-12-19T09:49:34.514Z,99.90
2017-12-19T09:52:02.010Z,99.90
2017-12-19T09:54:30.277Z,99.90
2017-12-19T09:56:57.881Z,99.90
2017-12-19T09:59:25.434Z,99.90
2017-12-19T10:01:52.936Z,99.90
2017-12-19T10:04:20.459Z,99.90
2017-12-19T10:06:48.003Z,99.90
2017-12-19T10:09:15.493Z,99.90
2017-12-19T10:11:43.022Z,99.90
2017-12-19T10:14:10.581Z,99.90
2017-12-19T10:16:38.106Z,99.90
2017-12-19T10:19:05.615Z,99.90
2017-12-19T10:21:33.157Z,99.90
2017-12-19T10:24:00.666Z,99.90
2017-12-19T10:26:28.166Z,99.90
2017-12-19T10:28:56.464Z,99.90
2017-12-19T10:31:23.966Z,99.90
2017-12-19T10:33:51.489Z,99.90
2017-12-19T10:36:19.010Z,99.90
2017-12-19T10:38:47.322Z,99.90
2017-12-19T10:41:14.854Z,99.90
2017-12-19T10:43:43.119Z,99.90
2017-12-19T10:46:11.405Z,99.90
2017-12-19T10:48:39.682Z,99.90
2017-12-19T10:51:07.962Z,99.90
2017-12-19T10:53:36.245Z,99.90
2017-12-19T10:56:04.554Z,99.90
2017-12-19T10:58:32.046Z,99.90
2017-12-19T11:00:59.538Z,99.90
2017-12-19T11:03:27.807Z,99.90
2017-12-19T11:05:56.082Z,99.90
2017-12-19T11:08:24.510Z,99.90
2017-12-19T11:10:52.009Z,99.90
2017-12-19T11:13:20.283Z,99.90
2017-12-19T11:15:47.797Z,99.90
2017-12-19T11:18:15.367Z,99.90
2017-12-19T11:20:42.972Z,99.90
2017-12-19T11:23:11.414Z,99.90
2017-12-19T11:25:38.936Z,99.90
2017-12-19T11:28:06.523Z,99.90
2017-12-19T11:30:34.846Z,99.90
2017-12-19T11:33:03.125Z,99.90
2017-12-19T11:35:31.410Z,99.90
2017-12-19T11:37:59.698Z,99.90
2017-12-19T11:40:28.014Z,99.90
2017-12-19T11:42:55.570Z,99.90
2017-12-19T11:45:23.058Z,99.90
2017-12-19T11:47:50.598Z,99.90
2017-12-19T11:50:18.233Z,99.90
2017-12-19T11:52:45.746Z,99.90
2017-12-19T11:55:13.294Z,99.90
2017-12-19T11:57:40.789Z,99.90
2017-12-19T12:00:09.065Z,99.90
2017-12-19T12:02:36.929Z,99.90
2017-12-19T12:05:04.521Z,99.90
2017-12-19T12:07:32.916Z,99.90
2017-12-19T12:10:00.546Z,99.90
2017-12-19T12:12:28.054Z,99.90
2017-12-19T12:14:55.567Z,99.90
2017-12-19T12:17:23.130Z,99.90
2017-12-19T12:19:50.654Z,99.90
2017-12-19T12:22:18.924Z,99.90
2017-12-19T12:24:46.666Z,99.90
2017-12-19T12:27:14.418Z,99.90
2017-12-19T12:29:42.756Z,99.90
2017-12-19T12:32:11.018Z,99.90
2017-12-19T12:34:39.408Z,99.90
2017-12-19T12:37:07.930Z,99.90
2017-12-19T12:39:35.472Z,99.90
2017-12-19T12:42:02.995Z,99.90
2017-12-19T12:44:31.266Z,99.90
2017-12-19T12:46:59.777Z,99.90
2017-12-19T12:49:28.140Z,99.90
2017-12-19T12:51:56.682Z,99.90
2017-12-19T12:54:24.273Z,99.90
2017-12-19T12:56:51.981Z,99.90
2017-12-19T12:59:19.498Z,99.90
2017-12-19T13:01:47.051Z,99.90
2017-12-19T13:04:15.396Z,99.90
2017-12-19T13:06:42.968Z,99.90
2017-12-19T13:09:10.499Z,99.90
2017-12-19T13:11:38.082Z,99.90
2017-12-19T13:14:05.571Z,99.90
2017-12-19T13:16:34.004Z,99.90
2017-12-19T13:19:02.412Z,99.90
2017-12-19T13:21:30.275Z,99.90
2017-12-19T13:23:58.708Z,99.90
2017-12-19T13:26:26.229Z,99.90
2017-12-19T13:28:53.861Z,99.90
2017-12-19T13:31:21.443Z,99.90
2017-12-19T13:33:48.967Z,99.90
2017-12-19T13:36:16.477Z,99.90
2017-12-19T13:38:43.999Z,99.90
2017-12-19T13:41:11.521Z,99.90
2017-12-19T13:43:39.839Z,99.90
2017-12-19T13:46:07.586Z,99.90
2017-12-19T13:48:35.412Z,99.90
2017-12-19T13:51:03.744Z,99.90
2017-12-19T13:53:31.340Z,99.90
2017-12-19T13:55:58.934Z,99.90
2017-12-19T13:58:26.433Z,99.90
2017-12-19T14:00:53.958Z,99.90
2017-12-19T14:03:21.536Z,99.90
2017-12-19T14:05:49.026Z,99.90
2017-12-19T14:08:16.635Z,99.90
2017-12-19T14:10:44.161Z,99.90
2017-12-19T14:13:11.714Z,99.90
2017-12-19T14:15:39.212Z,99.90
2017-12-19T14:18:06.772Z,99.90
2017-12-19T14:20:34.287Z,99.90
2017-12-19T14:23:01.782Z,99.90
2017-12-19T14:25:30.092Z,99.90
2017-12-19T14:27:57.598Z,99.90
2017-12-19T14:30:25.954Z,99.70
2017-12-19T14:32:53.514Z,99.70
2017-12-19T14:35:21.042Z,99.70
2017-12-19T14:37:48.578Z,99.90
2017-12-19T14:40:16.086Z,99.80
2017-12-19T14:42:43.601Z,99.80
2017-12-19T14:45:11.093Z,99.80
2017-12-19T14:47:38.616Z,99.60
2017-12-19T14:50:06.124Z,99.60
2017-12-19T14:52:33.739Z,99.50
2017-12-19T14:55:01.234Z,99.50
2017-12-19T14:57:28.769Z,99.70
2017-12-19T14:59:56.274Z,99.50
2017-12-19T15:02:23.759Z,99.40
2017-12-19T15:04:52.050Z,99.40
2017-12-19T15:07:19.553Z,99.40
2017-12-19T15:09:47.080Z,99.40
2017-12-19T15:12:14.590Z,99.60
2017-12-19T15:14:42.093Z,99.50
2017-12-19T15:17:09.644Z,99.50
2017-12-19T15:19:37.925Z,99.90
2017-12-19T15:22:05.438Z,99.70
2017-12-19T15:24:32.934Z,99.60
2017-12-19T15:27:01.240Z,99.70
2017-12-19T15:29:28.737Z,99.70
2017-12-19T15:31:56.998Z,99.90
2017-12-19T15:34:24.557Z,99.90
2017-12-19T15:36:52.055Z,99.80
2017-12-19T15:39:20.329Z,99.50
2017-12-19T15:41:48.582Z,99.80
2017-12-19T15:44:16.134Z,99.80
2017-12-19T15:46:43.636Z,99.80
2017-12-19T15:50:10.779Z,99.50
2017-12-19T15:52:39.047Z,99.70
2017-12-19T15:55:07.369Z,99.70
2017-12-19T15:57:34.862Z,99.70
2017-12-19T16:12:43.431Z,99.70
2017-12-19T16:15:10.949Z,99.70
2017-12-19T16:17:38.458Z,99.60
2017-12-19T16:20:05.972Z,99.50
2017-12-19T16:22:34.460Z,99.40
2017-12-19T16:25:02.742Z,99.30
2017-12-19T16:27:31.019Z,99.10
2017-12-19T16:29:59.421Z,99.30
2017-12-19T16:32:26.930Z,99.30
2017-12-19T16:34:55.350Z,99.10
2017-12-19T16:37:22.881Z,99.20
2017-12-19T16:39:51.448Z,98.90
2017-12-19T16:42:19.871Z,98.70
2017-12-19T16:44:48.145Z,98.60
2017-12-19T16:47:15.710Z,98.60
2017-12-19T16:49:43.425Z,98.80
2017-12-19T16:52:11.046Z,98.80
2017-12-19T16:54:39.645Z,98.80
2017-12-19T16:57:07.190Z,98.60
2017-12-19T16:59:34.699Z,98.70
2017-12-19T17:02:02.190Z,98.70
2017-12-19T17:04:29.768Z,98.50
2017-12-19T17:06:57.263Z,98.50
2017-12-19T17:09:24.751Z,98.40
2017-12-19T17:11:53.062Z,98.50
2017-12-19T17:14:20.573Z,98.50
2017-12-19T17:16:48.080Z,98.50
2017-12-19T17:19:15.612Z,98.80
2017-12-19T17:21:43.100Z,98.80
2017-12-19T17:24:10.597Z,98.80
2017-12-19T17:26:38.420Z,99.00
2017-12-19T17:29:05.934Z,99.00
2017-12-19T17:31:34.478Z,98.80
2017-12-19T17:34:01.982Z,98.90
2017-12-19T17:36:30.246Z,98.90
2017-12-19T17:38:57.760Z,98.90
2017-12-19T17:41:25.311Z,98.60
2017-12-19T17:43:52.845Z,98.70
2017-12-19T17:46:21.415Z,99.20
2017-12-19T17:48:49.694Z,99.60
2017-12-19T17:51:17.214Z,99.60
2017-12-19T17:53:44.770Z,99.70
2017-12-19T17:56:12.635Z,99.80
2017-12-19T17:58:40.413Z,99.80
2017-12-19T18:01:08.025Z,99.90
2017-12-19T18:03:36.286Z,99.90
2017-12-19T18:06:03.818Z,99.90
2017-12-19T18:08:31.326Z,99.90
2017-12-19T18:10:59.602Z,99.90
2017-12-19T18:13:27.873Z,99.90
2017-12-19T18:15:56.924Z,99.90
2017-12-19T18:18:24.472Z,99.90
2017-12-19T18:20:52.002Z,99.90
2017-12-19T18:23:19.510Z,99.90
2017-12-19T18:25:47.030Z,99.90
2017-12-19T18:28:14.593Z,99.90
2017-12-19T18:30:42.113Z,99.90
2017-12-19T18:33:10.486Z,99.90
2017-12-19T18:35:38.247Z,99.90
2017-12-19T18:38:06.709Z,99.90
2017-12-19T18:40:34.257Z,99.90
2017-12-19T18:43:01.774Z,99.90
2017-12-19T18:45:29.314Z,99.90
2017-12-19T18:47:57.642Z,99.90
2017-12-19T18:50:25.132Z,99.90
2017-12-19T18:52:52.654Z,99.90
2017-12-19T18:55:20.155Z,99.90
2017-12-19T18:57:47.710Z,99.90
2017-12-19T19:00:15.244Z,99.90
2017-12-19T19:02:42.765Z,99.90
2017-12-19T19:05:11.086Z,99.90
2017-12-19T19:07:39.358Z,99.90
2017-12-19T19:10:07.001Z,99.90
2017-12-19T19:12:34.504Z,99.90
2017-12-19T19:15:02.022Z,99.90
2017-12-19T19:17:29.574Z,99.90
2017-12-19T19:19:57.071Z,99.90
2017-12-19T19:22:24.594Z,99.90
2017-12-19T19:24:52.120Z,99.90
2017-12-19T19:27:20.383Z,99.90
2017-12-19T19:29:47.954Z,99.90
2017-12-19T19:32:16.257Z,99.90
2017-12-19T19:34:43.806Z,99.90
2017-12-19T19:37:12.086Z,99.90
2017-12-19T19:39:40.379Z,99.90
2017-12-19T19:42:07.961Z,99.90
2017-12-19T19:44:35.582Z,99.90
2017-12-19T19:47:03.128Z,99.90
2017-12-19T19:49:31.401Z,99.90
2017-12-19T19:51:59.693Z,99.90
2017-12-19T19:54:27.967Z,99.90
2017-12-19T19:56:56.317Z,99.90
2017-12-19T19:59:23.856Z,99.90
2017-12-19T20:01:51.375Z,99.90
2017-12-19T20:04:18.912Z,99.90
2017-12-19T20:06:47.196Z,99.90
2017-12-19T20:09:15.469Z,99.90
2017-12-19T20:11:43.827Z,99.90
2017-12-19T20:14:12.372Z,99.90
2017-12-19T20:16:39.862Z,99.90
2017-12-19T20:19:07.389Z,99.90
2017-12-19T20:21:34.947Z,99.90
2017-12-19T20:24:02.437Z,99.90
2017-12-19T20:26:29.978Z,99.90
2017-12-19T20:28:57.483Z,99.90
2017-12-19T20:31:25.788Z,99.90
2017-12-19T20:33:53.365Z,99.90
2017-12-19T20:36:20.974Z,99.90
2017-12-19T20:38:48.557Z,99.90
2017-12-19T20:41:16.854Z,99.90
2017-12-19T20:43:44.364Z,99.90
2017-12-19T20:46:12.668Z,99.90
2017-12-19T20:48:40.986Z,99.90
2017-12-19T20:51:08.490Z,99.90
2017-12-19T20:53:36.758Z,99.90
2017-12-19T20:56:04.274Z,99.90
2017-12-19T20:58:31.768Z,99.90
2017-12-19T21:00:59.309Z,99.90
2017-12-19T21:03:26.811Z,99.90
2017-12-19T21:05:55.099Z,99.90
2017-12-19T21:08:23.514Z,99.90
2017-12-19T21:10:51.066Z,99.90
2017-12-19T21:13:18.626Z,99.90
2017-12-19T21:15:46.187Z,99.90
2017-12-19T21:18:13.758Z,99.90
2017-12-19T21:20:41.295Z,99.90
2017-12-19T21:23:08.835Z,99.90
2017-12-19T21:25:37.144Z,99.90
2017-12-19T21:28:04.649Z,99.90
2017-12-19T21:30:32.169Z,99.90
2017-12-19T21:32:59.718Z,99.90
2017-12-19T21:35:27.215Z,99.90
2017-12-19T21:37:54.734Z,99.90
2017-12-19T21:40:22.232Z,99.90
2017-12-19T21:42:49.754Z,99.90
2017-12-19T21:45:17.262Z,99.90
2017-12-19T21:47:44.754Z,99.90
2017-12-19T21:50:12.297Z,99.90
2017-12-19T21:52:40.553Z,99.90
2017-12-19T21:55:08.146Z,99.90
2017-12-19T21:57:35.648Z,99.90
2017-12-19T22:00:03.154Z,99.90
2017-12-19T22:02:31.465Z,99.90
2017-12-19T22:04:58.959Z,99.90
2017-12-19T22:07:27.262Z,99.90
2017-12-19T22:09:55.535Z,99.90
2017-12-19T22:12:23.835Z,99.90
2017-12-19T22:14:51.334Z,99.90
2017-12-19T22:17:18.845Z,99.90
2017-12-19T22:19:47.122Z,99.90
2017-12-19T22:22:14.821Z,99.90
2017-12-19T22:24:42.354Z,99.90
2017-12-19T22:27:09.837Z,99.90
2017-12-19T22:29:37.374Z,99.90
2017-12-19T22:32:04.922Z,99.90
2017-12-19T22:34:33.202Z,99.90
2017-12-19T22:37:00.718Z,99.90
2017-12-19T22:39:28.220Z,99.90
2017-12-19T22:41:55.722Z,99.90
2017-12-19T22:44:23.228Z,99.90
2017-12-19T22:46:50.758Z,99.90
2017-12-19T22:49:19.052Z,99.90
2017-12-19T22:51:47.314Z,99.90
2017-12-19T22:54:14.830Z,99.90
2017-12-19T22:56:42.328Z,99.90
2017-12-19T22:59:09.844Z,99.90
2017-12-19T23:01:37.343Z,99.90
2017-12-19T23:04:04.854Z,99.90
2017-12-19T23:06:32.357Z,99.90
2017-12-19T23:08:59.862Z,99.90
2017-12-19T23:11:27.370Z,99.90
2017-12-19T23:13:54.866Z,99.90
2017-12-19T23:16:22.370Z,99.90
2017-12-19T23:18:49.862Z,99.90
2017-12-19T23:21:17.396Z,99.90
2017-12-19T23:23:44.891Z,99.90
2017-12-19T23:26:13.152Z,99.90
2017-12-19T23:28:40.662Z,99.90
2017-12-19T23:31:08.170Z,99.90
2017-12-19T23:33:35.679Z,99.90
2017-12-19T23:36:03.194Z,99.90
2017-12-19T23:38:30.707Z,99.90
2017-12-19T23:40:58.962Z,99.90
2017-12-19T23:43:26.478Z,99.90
2017-12-19T23:45:53.991Z,99.90
2017-12-19T23:48:21.490Z,99.90
2017-12-19T23:50:48.998Z,99.90
2017-12-19T23:53:16.485Z,99.90
2017-12-19T23:55:43.997Z,99.90
2017-12-19T23:58:12.258Z,99.90
